createdAt,value
2023-02-19T00:01:19.874Z,99572.22
2023-02-19T00:03:52.618Z,99593.56
2023-02-19T00:06:20.521Z,99591.19
2023-02-19T00:08:47.272Z,99513.63
2023-02-19T00:11:20.606Z,99558.41
2023-02-19T00:13:50.204Z,99582.16
2023-02-19T00:16:28.144Z,99587.50
2023-02-19T00:18:56.294Z,99546.63
2023-02-19T00:21:23.836Z,99542.84
2023-02-19T00:23:53.097Z,99506.94
2023-02-19T00:26:20.037Z,99563.03
2023-02-19T00:28:50.873Z,99578.06
2023-02-19T00:31:27.113Z,99570.03
2023-02-19T00:33:57.397Z,99566.41
2023-02-19T00:36:25.750Z,99505.31
2023-02-19T00:38:52.491Z,99512.16
2023-02-19T00:41:21.421Z,99562.88
2023-02-19T00:43:59.567Z,99566.19
2023-02-19T00:46:46.421Z,99548.63
2023-02-19T00:49:20.082Z,99546.78
2023-02-19T00:51:47.651Z,99556.72
2023-02-19T00:54:14.884Z,99579.75
2023-02-19T00:56:42.244Z,99545.50
2023-02-19T00:59:09.116Z,99506.56
2023-02-19T01:01:36.129Z,99524.53
2023-02-19T01:04:04.289Z,99511.47
2023-02-19T01:06:32.982Z,99567.81
2023-02-19T01:08:59.628Z,99537.97
2023-02-19T01:11:27.310Z,99511.53
2023-02-19T01:13:58.497Z,99498.75
2023-02-19T01:16:25.345Z,99482.50
2023-02-19T01:18:52.295Z,99525.09
2023-02-19T01:21:22.074Z,99564.59
2023-02-19T01:23:50.247Z,99564.03
2023-02-19T01:26:29.246Z,99476.63
2023-02-19T01:28:55.922Z,99543.69
2023-02-19T01:31:24.428Z,99556.00
2023-02-19T01:33:53.572Z,99558.59
2023-02-19T01:36:20.349Z,99566.50
2023-02-19T01:38:47.679Z,99562.22
2023-02-19T01:41:17.029Z,99462.38
2023-02-19T01:44:03.587Z,99559.06
2023-02-19T01:46:41.711Z,99552.25
2023-02-19T01:49:21.029Z,99522.25
2023-02-19T01:51:52.933Z,99551.91
2023-02-19T01:54:22.671Z,99517.38
2023-02-19T01:56:50.145Z,99547.16
2023-02-19T01:59:18.370Z,99524.28
2023-02-19T02:01:45.211Z,99515.50
2023-02-19T02:04:14.402Z,99542.56
2023-02-19T02:06:49.948Z,99550.44
2023-02-19T02:09:38.258Z,99546.19
2023-02-19T02:12:05.469Z,99533.88
2023-02-19T02:14:36.023Z,99493.59
2023-02-19T02:17:25.902Z,99535.56
2023-02-19T02:20:07.970Z,99532.72
2023-02-19T02:22:37.661Z,99527.75
2023-02-19T02:25:25.928Z,99523.66
2023-02-19T02:28:09.524Z,99521.00
2023-02-19T02:30:50.660Z,99505.03
2023-02-19T02:33:39.809Z,99516.94
2023-02-19T02:36:13.041Z,99510.78
2023-02-19T02:38:44.020Z,99496.91
2023-02-19T02:41:13.393Z,99482.59
2023-02-19T02:43:40.202Z,99505.88
2023-02-19T02:46:10.451Z,99492.13
2023-02-19T02:48:55.517Z,99496.50
2023-02-19T02:51:27.645Z,99486.03
2023-02-19T02:54:25.851Z,99506.66
2023-02-19T02:56:56.078Z,99488.31
2023-02-19T02:59:30.439Z,99458.53
2023-02-19T03:02:19.989Z,99483.13
2023-02-19T03:05:15.645Z,99497.84
2023-02-19T03:07:53.387Z,99496.38
2023-02-19T03:10:28.477Z,99496.38
2023-02-19T03:13:15.927Z,99491.31
2023-02-19T03:16:20.203Z,99420.81
2023-02-19T03:19:12.172Z,99486.28
2023-02-19T03:21:42.319Z,99463.38
2023-02-19T03:24:31.342Z,99486.16
2023-02-19T03:27:04.341Z,99458.38
2023-02-19T03:29:39.881Z,99477.69
2023-02-19T03:32:18.283Z,99446.56
2023-02-19T03:34:51.636Z,99437.88
2023-02-19T03:37:25.258Z,99453.81
2023-02-19T03:39:54.624Z,99417.38
2023-02-19T03:42:55.815Z,99453.56
2023-02-19T03:45:41.632Z,99432.72
2023-02-19T03:48:32.314Z,99468.50
2023-02-19T03:51:08.697Z,99471.03
2023-02-19T03:53:47.743Z,99476.94
2023-02-19T03:56:22.195Z,99479.59
2023-02-19T03:59:16.839Z,99482.03
2023-02-19T04:01:59.797Z,99471.41
2023-02-19T04:04:53.479Z,99419.47
2023-02-19T04:07:22.554Z,99468.66
2023-02-19T04:09:51.977Z,99482.75
2023-02-19T04:12:22.617Z,99384.16
2023-02-19T04:14:54.830Z,99477.69
2023-02-19T04:17:29.648Z,99418.25
2023-02-19T04:19:59.505Z,99478.91
2023-02-19T04:22:26.611Z,99412.38
2023-02-19T04:24:55.519Z,99443.72
2023-02-19T04:27:22.279Z,99457.72
2023-02-19T04:29:48.966Z,99469.50
2023-02-19T04:32:15.609Z,99395.50
2023-02-19T04:34:42.334Z,99443.47
2023-02-19T04:37:09.026Z,99471.94
2023-02-19T04:39:35.665Z,99457.34
2023-02-19T04:42:02.247Z,99440.13
2023-02-19T04:44:28.949Z,99495.31
2023-02-19T04:46:55.851Z,99444.19
2023-02-19T04:49:22.556Z,99498.81
2023-02-19T04:51:49.172Z,99490.41
2023-02-19T04:54:15.929Z,99463.50
2023-02-19T04:56:42.562Z,99470.34
2023-02-19T04:59:09.913Z,99395.50
2023-02-19T05:01:36.507Z,99457.59
2023-02-19T05:04:04.866Z,99422.47
2023-02-19T05:06:31.581Z,99461.81
2023-02-19T05:08:58.409Z,99425.00
2023-02-19T05:11:25.199Z,99460.59
2023-02-19T05:13:51.927Z,99438.97
2023-02-19T05:16:18.770Z,99452.13
2023-02-19T05:18:46.645Z,99459.47
2023-02-19T05:21:13.737Z,99457.44
2023-02-19T05:23:40.887Z,99434.03
2023-02-19T05:26:17.745Z,99454.16
2023-02-19T05:28:45.772Z,99422.28
2023-02-19T05:31:13.689Z,99451.47
2023-02-19T05:33:42.925Z,99379.59
2023-02-19T05:36:12.496Z,99439.91
2023-02-19T05:38:40.107Z,99447.50
2023-02-19T05:41:08.782Z,99429.47
2023-02-19T05:43:35.603Z,99417.41
2023-02-19T05:46:02.286Z,99452.88
2023-02-19T05:48:29.045Z,99451.19
2023-02-19T05:51:02.271Z,99411.50
2023-02-19T05:53:28.932Z,99458.53
2023-02-19T05:55:55.632Z,99462.50
2023-02-19T05:58:22.307Z,99458.81
2023-02-19T06:00:49.105Z,99458.53
2023-02-19T06:03:15.873Z,99398.66
2023-02-19T06:05:42.626Z,99435.34
2023-02-19T06:08:12.565Z,99449.59
2023-02-19T06:10:41.274Z,99414.56
2023-02-19T06:13:09.360Z,99416.31
2023-02-19T06:15:37.448Z,99458.66
2023-02-19T06:18:04.371Z,99451.06
2023-02-19T06:20:31.035Z,99449.38
2023-02-19T06:22:57.861Z,99444.69
2023-02-19T06:25:24.412Z,99452.50
2023-02-19T06:27:51.005Z,99437.72
2023-02-19T06:30:17.962Z,99449.81
2023-02-19T06:32:44.638Z,99425.81
2023-02-19T06:35:11.255Z,99444.56
2023-02-19T06:37:37.831Z,99422.00
2023-02-19T06:40:04.919Z,99439.25
2023-02-19T06:42:33.020Z,99400.53
2023-02-19T06:44:59.532Z,99438.09
2023-02-19T06:47:26.216Z,99406.59
2023-02-19T06:49:52.891Z,99447.72
2023-02-19T06:52:19.511Z,99432.31
2023-02-19T06:54:46.078Z,99452.69
2023-02-19T06:57:12.818Z,99417.25
2023-02-19T06:59:39.451Z,99411.59
2023-02-19T07:02:06.232Z,99422.09
2023-02-19T07:04:32.939Z,99325.91
2023-02-19T07:07:00.326Z,99413.66
2023-02-19T07:09:28.479Z,99366.78
2023-02-19T07:11:55.165Z,99451.44
2023-02-19T07:14:22.253Z,99398.25
2023-02-19T07:16:49.195Z,99430.25
2023-02-19T07:19:16.077Z,99440.28
2023-02-19T07:21:43.206Z,99432.47
2023-02-19T07:24:10.309Z,99407.97
2023-02-19T07:26:36.984Z,99444.06
2023-02-19T07:29:04.359Z,99405.00
2023-02-19T07:31:31.055Z,99456.09
2023-02-19T07:33:57.712Z,99457.66
2023-02-19T07:36:24.838Z,99459.47
2023-02-19T07:38:56.231Z,99443.19
2023-02-19T07:41:23.746Z,99470.94
2023-02-19T07:43:50.631Z,99428.72
2023-02-19T07:46:17.203Z,99450.16
2023-02-19T07:48:44.522Z,99391.56
2023-02-19T07:51:16.457Z,99474.94
2023-02-19T07:53:43.127Z,99408.41
2023-02-19T07:56:11.316Z,99474.25
2023-02-19T07:58:38.333Z,99433.41
2023-02-19T08:01:09.191Z,99474.09
2023-02-19T08:03:37.264Z,99443.19
2023-02-19T08:06:04.680Z,99428.06
2023-02-19T08:08:31.266Z,99400.00
2023-02-19T08:11:21.105Z,99466.34
2023-02-19T08:13:52.833Z,99471.28
2023-02-19T08:16:29.716Z,99448.25
2023-02-19T08:19:00.314Z,99478.50
2023-02-19T08:21:26.935Z,99472.22
2023-02-19T08:23:53.634Z,99434.63
2023-02-19T08:26:20.311Z,99403.94
2023-02-19T08:28:48.868Z,99462.00
2023-02-19T08:31:15.755Z,99450.16
2023-02-19T08:33:42.605Z,99412.72
2023-02-19T08:36:10.684Z,99418.44
2023-02-19T08:38:37.738Z,99453.03
2023-02-19T08:41:09.683Z,99470.56
2023-02-19T08:43:37.089Z,99471.44
2023-02-19T08:46:04.445Z,99431.66
2023-02-19T08:48:31.224Z,99418.59
2023-02-19T08:51:02.078Z,99398.09
2023-02-19T08:53:28.833Z,99478.59
2023-02-19T08:55:55.490Z,99462.41
2023-02-19T08:58:22.726Z,99471.88
2023-02-19T09:00:49.285Z,99367.41
2023-02-19T09:03:16.112Z,99459.03
2023-02-19T09:05:42.644Z,99438.03
2023-02-19T09:08:09.413Z,99441.13
2023-02-19T09:10:35.935Z,99477.69
2023-02-19T09:13:02.840Z,99462.59
2023-02-19T09:15:29.803Z,99407.56
2023-02-19T09:17:56.932Z,99474.84
2023-02-19T09:20:23.753Z,99429.06
2023-02-19T09:22:50.796Z,99439.56
2023-02-19T09:25:17.513Z,99466.88
2023-02-19T09:27:50.226Z,99475.81
2023-02-19T09:30:17.070Z,99464.44
2023-02-19T09:32:43.777Z,99392.81
2023-02-19T09:35:10.456Z,99461.03
2023-02-19T09:37:37.046Z,99445.72
2023-02-19T09:40:03.886Z,99464.25
2023-02-19T09:42:32.773Z,99481.00
2023-02-19T09:45:01.741Z,99447.22
2023-02-19T09:47:31.520Z,99481.66
2023-02-19T09:50:07.520Z,99420.16
2023-02-19T09:52:45.249Z,99449.72
2023-02-19T09:55:30.206Z,99470.47
2023-02-19T09:58:00.014Z,99454.00
2023-02-19T10:00:30.389Z,99462.31
2023-02-19T10:03:08.569Z,99462.06
2023-02-19T10:05:35.689Z,99412.25
2023-02-19T10:08:07.224Z,99469.63
2023-02-19T10:10:36.521Z,99379.81
2023-02-19T10:13:28.588Z,99458.16
2023-02-19T10:15:57.231Z,99461.09
2023-02-19T10:18:28.324Z,99443.66
2023-02-19T10:20:56.654Z,99461.94
2023-02-19T10:23:24.757Z,99424.84
2023-02-19T10:25:57.208Z,99423.50
2023-02-19T10:28:28.702Z,99440.06
2023-02-19T10:31:00.808Z,99406.69
2023-02-19T10:33:28.252Z,99378.53
2023-02-19T10:35:59.198Z,99443.63
2023-02-19T10:38:35.549Z,99395.41
2023-02-19T10:41:07.964Z,99408.91
2023-02-19T10:43:43.916Z,99423.63
2023-02-19T10:46:21.366Z,99435.59
2023-02-19T10:48:58.415Z,99427.47
2023-02-19T10:51:52.381Z,99422.13
2023-02-19T10:54:29.740Z,99432.34
2023-02-19T10:57:15.566Z,99403.91
2023-02-19T10:59:52.516Z,99422.84
2023-02-19T11:02:21.481Z,99419.94
2023-02-19T11:05:09.817Z,99406.44
2023-02-19T11:07:37.774Z,99402.38
2023-02-19T11:10:07.140Z,99324.63
2023-02-19T11:12:35.125Z,99380.94
2023-02-19T11:15:19.974Z,99386.34
2023-02-19T11:18:04.990Z,99396.72
2023-02-19T11:20:32.389Z,99349.44
2023-02-19T11:23:06.528Z,99382.00
2023-02-19T11:25:33.758Z,99365.09
2023-02-19T11:28:07.468Z,99377.03
2023-02-19T11:30:38.953Z,99369.50
2023-02-19T11:33:19.759Z,99357.19
2023-02-19T11:35:48.235Z,99345.13
2023-02-19T11:38:17.208Z,99346.84
2023-02-19T11:41:14.629Z,99345.34
2023-02-19T11:44:12.757Z,99339.34
2023-02-19T11:46:53.941Z,99335.50
2023-02-19T11:49:54.466Z,99325.31
2023-02-19T11:52:27.066Z,99322.81
2023-02-19T11:55:10.696Z,99276.63
2023-02-19T11:57:47.901Z,99276.97
2023-02-19T12:00:22.493Z,99301.31
2023-02-19T12:03:17.140Z,99299.38
2023-02-19T12:06:02.289Z,99290.78
2023-02-19T12:09:06.382Z,99288.94
2023-02-19T12:11:41.031Z,99280.88
2023-02-19T12:14:45.338Z,99283.34
2023-02-19T12:17:24.546Z,99273.94
2023-02-19T12:20:08.126Z,99241.94
2023-02-19T12:23:01.671Z,99232.19
2023-02-19T12:25:28.440Z,99253.56
2023-02-19T12:28:21.374Z,99248.84
2023-02-19T12:31:12.701Z,99248.88
2023-02-19T12:33:42.260Z,99240.59
2023-02-19T12:36:24.259Z,99243.88
2023-02-19T12:39:18.920Z,99232.06
2023-02-19T12:42:03.305Z,99216.41
2023-02-19T12:44:42.904Z,99216.97
2023-02-19T12:47:19.369Z,99213.78
2023-02-19T12:50:09.760Z,99203.44
2023-02-19T12:52:41.448Z,99197.44
2023-02-19T12:55:22.656Z,99194.72
2023-02-19T12:57:51.291Z,99177.81
2023-02-19T13:00:37.199Z,99138.16
2023-02-19T13:03:20.894Z,99197.63
2023-02-19T13:06:32.585Z,99192.88
2023-02-19T13:09:21.075Z,99192.78
2023-02-19T13:11:56.288Z,99180.53
2023-02-19T13:14:41.697Z,99198.00
2023-02-19T13:17:20.287Z,99194.38
2023-02-19T13:19:50.549Z,99183.28
2023-02-19T13:22:59.689Z,99182.03
2023-02-19T13:25:44.194Z,99171.69
2023-02-19T13:28:18.694Z,99173.56
2023-02-19T13:31:24.994Z,99166.03
2023-02-19T13:34:00.692Z,99164.91
2023-02-19T13:36:29.733Z,99143.16
2023-02-19T13:38:57.665Z,99160.69
2023-02-19T13:41:35.309Z,99165.72
2023-02-19T13:44:04.983Z,99165.38
2023-02-19T13:46:41.550Z,99163.16
2023-02-19T13:49:31.539Z,99160.44
2023-02-19T13:52:01.154Z,99147.63
2023-02-19T13:54:33.531Z,99145.63
2023-02-19T13:57:24.896Z,99145.13
2023-02-19T13:59:53.086Z,99151.88
2023-02-19T14:02:34.015Z,99147.34
2023-02-19T14:05:10.266Z,99152.44
2023-02-19T14:07:49.178Z,99139.03
2023-02-19T14:10:50.945Z,99126.63
2023-02-19T14:13:56.374Z,99144.81
2023-02-19T14:16:49.493Z,99143.91
2023-02-19T14:19:41.921Z,99153.34
2023-02-19T14:22:57.992Z,99158.53
2023-02-19T14:25:30.271Z,99163.56
2023-02-19T14:28:06.036Z,99159.28
2023-02-19T14:30:34.492Z,99145.00
2023-02-19T14:33:10.523Z,99158.19
2023-02-19T14:35:44.365Z,99160.91
2023-02-19T14:38:20.216Z,99142.91
2023-02-19T14:40:48.781Z,99175.22
2023-02-19T14:43:19.499Z,99169.75
2023-02-19T14:45:52.542Z,99162.97
2023-02-19T14:48:28.497Z,99163.44
2023-02-19T14:51:04.245Z,99169.16
2023-02-19T14:53:36.246Z,99165.41
2023-02-19T14:56:04.206Z,99156.38
2023-02-19T14:58:33.753Z,99156.94
2023-02-19T15:01:00.411Z,99152.53
2023-02-19T15:03:33.915Z,99150.59
2023-02-19T15:06:12.832Z,99152.78
2023-02-19T15:08:46.760Z,99148.69
2023-02-19T15:11:19.688Z,99147.03
2023-02-19T15:13:57.292Z,99164.63
2023-02-19T15:16:26.353Z,99139.63
2023-02-19T15:18:55.211Z,99148.41
2023-02-19T15:21:25.970Z,99142.91
2023-02-19T15:24:01.962Z,99150.88
2023-02-19T15:26:35.682Z,99161.59
2023-02-19T15:29:11.455Z,99151.38
2023-02-19T15:31:46.398Z,99156.28
2023-02-19T15:34:22.369Z,99155.13
2023-02-19T15:36:51.625Z,99140.81
2023-02-19T15:39:24.174Z,99170.84
2023-02-19T15:41:53.620Z,99166.97
2023-02-19T15:44:49.282Z,99169.63
2023-02-19T15:47:35.038Z,99165.09
2023-02-19T15:50:09.345Z,99170.22
2023-02-19T15:52:50.173Z,99145.66
2023-02-19T15:55:25.941Z,99159.06
2023-02-19T15:58:00.427Z,99157.25
2023-02-19T16:00:36.587Z,99140.38
2023-02-19T16:03:05.530Z,99097.63
2023-02-19T16:05:39.148Z,99134.13
2023-02-19T16:08:11.612Z,99133.84
2023-02-19T16:10:38.639Z,99082.22
2023-02-19T16:13:08.212Z,99109.84
2023-02-19T16:15:35.854Z,99119.25
2023-02-19T16:18:02.653Z,99112.44
2023-02-19T16:20:32.188Z,99111.00
2023-02-19T16:23:05.634Z,99072.59
2023-02-19T16:25:42.659Z,99093.06
2023-02-19T16:28:27.281Z,99156.19
2023-02-19T16:31:21.561Z,99148.66
2023-02-19T16:33:49.998Z,99159.97
2023-02-19T16:36:41.454Z,99152.16
2023-02-19T16:39:08.111Z,99155.13
2023-02-19T16:41:40.544Z,99163.78
2023-02-19T16:44:25.404Z,99157.34
2023-02-19T16:46:54.931Z,99169.91
2023-02-19T16:49:23.519Z,99170.41
2023-02-19T16:51:50.990Z,99158.78
2023-02-19T16:54:17.555Z,99095.13
2023-02-19T16:56:44.230Z,99151.28
2023-02-19T16:59:10.755Z,99141.78
2023-02-19T17:01:38.202Z,99083.97
2023-02-19T17:04:08.160Z,99143.03
2023-02-19T17:06:37.785Z,99057.56
2023-02-19T17:09:06.519Z,99097.53
2023-02-19T17:11:33.262Z,99044.78
2023-02-19T17:14:00.303Z,99134.53
2023-02-19T17:16:29.194Z,99151.56
2023-02-19T17:18:55.875Z,99088.88
2023-02-19T17:21:31.846Z,99150.13
2023-02-19T17:23:58.515Z,99149.63
2023-02-19T17:26:27.967Z,99145.78
2023-02-19T17:28:59.106Z,99146.50
2023-02-19T17:31:26.025Z,99153.03
2023-02-19T17:33:53.270Z,99121.84
2023-02-19T17:36:26.918Z,99131.38
2023-02-19T17:38:54.928Z,99184.19
2023-02-19T17:41:21.631Z,99193.81
2023-02-19T17:43:50.372Z,99113.66
2023-02-19T17:46:23.648Z,99122.78
2023-02-19T17:48:50.975Z,99197.03
2023-02-19T17:51:17.668Z,99171.91
2023-02-19T17:53:46.448Z,99099.28
2023-02-19T17:56:23.042Z,99180.00
2023-02-19T17:58:49.984Z,99197.03
2023-02-19T18:01:16.780Z,99221.72
2023-02-19T18:03:43.881Z,99190.28
2023-02-19T18:06:11.244Z,99199.25
2023-02-19T18:08:38.059Z,99171.19
2023-02-19T18:11:06.740Z,99230.47
2023-02-19T18:13:33.513Z,99116.31
2023-02-19T18:16:00.055Z,99220.28
2023-02-19T18:18:26.658Z,99234.47
2023-02-19T18:20:53.339Z,99212.84
2023-02-19T18:23:20.686Z,99166.50
2023-02-19T18:25:47.529Z,99226.03
2023-02-19T18:28:15.035Z,99243.22
2023-02-19T18:30:42.092Z,99247.72
2023-02-19T18:33:11.014Z,99184.41
2023-02-19T18:35:38.462Z,99221.69
2023-02-19T18:38:05.627Z,99211.34
2023-02-19T18:40:32.219Z,99245.66
2023-02-19T18:42:59.031Z,99249.75
2023-02-19T18:45:25.919Z,99197.13
2023-02-19T18:47:52.644Z,99235.50
2023-02-19T18:50:19.918Z,99262.47
2023-02-19T18:52:47.112Z,99192.38
2023-02-19T18:55:13.941Z,99178.56
2023-02-19T18:57:40.774Z,99205.44
2023-02-19T19:00:08.240Z,99249.00
2023-02-19T19:02:47.362Z,99229.28
2023-02-19T19:05:23.630Z,99287.53
2023-02-19T19:07:55.257Z,99197.47
2023-02-19T19:10:22.962Z,99269.28
2023-02-19T19:12:50.197Z,99280.69
2023-02-19T19:15:18.434Z,99269.84
2023-02-19T19:17:46.388Z,99226.97
2023-02-19T19:20:13.138Z,99295.38
2023-02-19T19:22:40.148Z,99238.41
2023-02-19T19:25:07.393Z,99240.41
2023-02-19T19:27:33.985Z,99229.84
2023-02-19T19:30:00.713Z,99295.72
2023-02-19T19:32:27.435Z,99225.75
2023-02-19T19:34:54.100Z,99314.63
2023-02-19T19:37:20.773Z,99212.78
2023-02-19T19:39:47.548Z,99315.53
2023-02-19T19:42:14.318Z,99230.66
2023-02-19T19:44:41.054Z,99319.38
2023-02-19T19:47:07.574Z,99284.28
2023-02-19T19:49:34.246Z,99246.88
2023-02-19T19:52:01.322Z,99299.06
2023-02-19T19:54:28.835Z,99264.44
2023-02-19T19:56:55.677Z,99249.00
2023-02-19T19:59:23.102Z,99355.66
2023-02-19T20:01:54.543Z,99285.41
2023-02-19T20:04:22.582Z,99257.88
2023-02-19T20:06:49.669Z,99285.63
2023-02-19T20:09:17.971Z,99336.94
2023-02-19T20:11:50.080Z,99376.28
2023-02-19T20:14:18.354Z,99300.69
2023-02-19T20:16:47.372Z,99352.09
2023-02-19T20:19:18.328Z,99288.50
2023-02-19T20:21:47.246Z,99327.44
2023-02-19T20:24:24.349Z,99373.63
2023-02-19T20:26:53.859Z,99354.03
2023-02-19T20:29:20.561Z,99358.25
2023-02-19T20:31:49.489Z,99403.28
2023-02-19T20:34:17.018Z,99341.28
2023-02-19T20:36:44.666Z,99324.34
2023-02-19T20:39:11.861Z,99413.16
2023-02-19T20:41:38.609Z,99363.84
2023-02-19T20:44:05.936Z,99351.66
2023-02-19T20:46:32.648Z,99342.72
2023-02-19T20:48:59.359Z,99398.31
2023-02-19T20:51:26.006Z,99338.50
2023-02-19T20:53:52.748Z,99380.84
2023-02-19T20:56:19.392Z,99344.84
2023-02-19T20:58:46.225Z,99357.69
2023-02-19T21:01:13.012Z,99387.69
2023-02-19T21:03:40.883Z,99325.94
2023-02-19T21:06:07.627Z,99365.31
2023-02-19T21:08:34.341Z,99330.63
2023-02-19T21:11:00.976Z,99363.41
2023-02-19T21:13:29.926Z,99449.34
2023-02-19T21:15:56.860Z,99396.31
2023-02-19T21:18:23.589Z,99347.81
2023-02-19T21:20:50.210Z,99412.97
2023-02-19T21:23:16.965Z,99355.50
2023-02-19T21:25:43.532Z,99436.09
2023-02-19T21:28:10.762Z,99433.16
2023-02-19T21:30:37.423Z,99396.94
2023-02-19T21:33:04.680Z,99451.66
2023-02-19T21:35:31.317Z,99442.94
2023-02-19T21:37:58.071Z,99392.97
2023-02-19T21:40:25.669Z,99461.13
2023-02-19T21:42:52.334Z,99302.38
2023-02-19T21:45:18.920Z,99448.56
2023-02-19T21:47:46.231Z,99425.44
2023-02-19T21:50:12.973Z,99461.63
2023-02-19T21:52:39.572Z,99413.66
2023-02-19T21:55:06.480Z,99435.88
2023-02-19T21:57:33.275Z,99475.81
2023-02-19T21:59:59.853Z,99454.81
2023-02-19T22:02:26.528Z,99395.41
2023-02-19T22:04:53.820Z,99423.59
2023-02-19T22:07:21.769Z,99464.84
2023-02-19T22:09:48.779Z,99455.41
2023-02-19T22:12:15.860Z,99451.09
2023-02-19T22:14:42.735Z,99470.66
2023-02-19T22:17:09.427Z,99410.34
2023-02-19T22:19:36.091Z,99462.66
2023-02-19T22:22:02.728Z,99454.13
2023-02-19T22:24:29.282Z,99444.88
2023-02-19T22:26:57.417Z,99472.38
2023-02-19T22:29:24.748Z,99471.81
2023-02-19T22:31:51.648Z,99466.78
2023-02-19T22:34:18.531Z,99467.63
2023-02-19T22:36:45.626Z,99422.44
2023-02-19T22:39:18.831Z,99443.78
2023-02-19T22:41:45.490Z,99377.97
2023-02-19T22:44:12.442Z,99471.59
2023-02-19T22:46:39.010Z,99469.47
2023-02-19T22:49:06.728Z,99397.06
2023-02-19T22:51:35.482Z,99399.16
2023-02-19T22:54:02.253Z,99473.53
2023-02-19T22:56:29.313Z,99436.63
2023-02-19T22:58:57.286Z,99461.59
2023-02-19T23:01:24.646Z,99454.59
2023-02-19T23:04:00.162Z,99461.47
2023-02-19T23:06:32.138Z,99468.31
2023-02-19T23:09:03.324Z,99466.94
2023-02-19T23:11:33.163Z,99477.69
2023-02-19T23:14:00.162Z,99463.81
2023-02-19T23:16:27.818Z,99423.84
2023-02-19T23:18:54.848Z,99419.63
2023-02-19T23:21:22.656Z,99492.13
2023-02-19T23:23:49.666Z,99488.75
2023-02-19T23:26:16.778Z,99486.44
2023-02-19T23:28:44.539Z,99462.47
2023-02-19T23:31:11.972Z,99496.47
2023-02-19T23:33:38.817Z,99438.69
2023-02-19T23:36:06.335Z,99493.66
2023-02-19T23:38:33.394Z,99458.88
2023-02-19T23:41:00.296Z,99501.81
2023-02-19T23:43:27.074Z,99506.03
2023-02-19T23:45:53.655Z,99504.97
2023-02-19T23:48:20.356Z,99517.72
2023-02-19T23:50:47.105Z,99474.34
2023-02-19T23:53:13.751Z,99509.47
2023-02-19T23:55:40.352Z,99523.22
2023-02-19T23:58:06.940Z,99485.31
